createdAt,value
2018-06-25T00:00:29.613Z,0
2018-06-25T00:01:38.677Z,0
2018-06-25T00:02:47.533Z,0
2018-06-25T00:03:56.396Z,0
2018-06-25T00:05:05.254Z,0
2018-06-25T00:06:14.114Z,0
2018-06-25T00:07:23.252Z,0
2018-06-25T00:08:32.112Z,0
2018-06-25T00:09:40.972Z,0
2018-06-25T00:10:49.832Z,0
2018-06-25T00:11:58.692Z,0
2018-06-25T00:13:07.752Z,0
2018-06-25T00:14:16.615Z,0
2018-06-25T00:15:25.475Z,0
2018-06-25T00:16:34.612Z,0
2018-06-25T00:17:43.471Z,0
2018-06-25T00:18:52.782Z,0
2018-06-25T00:20:01.642Z,0
2018-06-25T00:21:10.503Z,0
2018-06-25T00:22:19.365Z,0
2018-06-25T00:23:28.500Z,0
2018-06-25T00:24:37.519Z,0
2018-06-25T00:25:46.372Z,0
2018-06-25T00:26:55.230Z,0
2018-06-25T00:28:04.090Z,0
2018-06-25T00:29:12.949Z,0
2018-06-25T00:30:22.094Z,0
2018-06-25T00:31:31.513Z,0
2018-06-25T00:32:40.369Z,0
2018-06-25T00:33:49.511Z,0
2018-06-25T00:34:58.371Z,0
2018-06-25T00:36:07.231Z,0
2018-06-25T00:37:16.366Z,0
2018-06-25T00:38:25.230Z,0
2018-06-25T00:39:34.092Z,0
2018-06-25T00:40:42.955Z,0
2018-06-25T00:41:51.815Z,0
2018-06-25T00:43:00.678Z,0
2018-06-25T00:44:09.535Z,0
2018-06-25T00:45:18.395Z,0
2018-06-25T00:46:27.257Z,0
2018-06-25T00:47:36.468Z,0
2018-06-25T00:48:45.334Z,0
2018-06-25T00:49:54.473Z,0
2018-06-25T00:51:03.612Z,0
2018-06-25T00:52:12.471Z,0
2018-06-25T00:53:21.379Z,0
2018-06-25T00:54:30.241Z,0
2018-06-25T00:55:39.101Z,0
2018-06-25T00:56:48.240Z,0
2018-06-25T00:57:57.101Z,0
2018-06-25T00:59:06.113Z,0
2018-06-25T01:00:15.252Z,0
2018-06-25T01:01:24.390Z,0
2018-06-25T01:02:33.248Z,0
2018-06-25T01:03:42.109Z,0
2018-06-25T01:04:50.967Z,0
2018-06-25T01:05:59.853Z,0
2018-06-25T01:07:08.692Z,0
2018-06-25T01:08:17.552Z,0
2018-06-25T01:09:26.412Z,0
2018-06-25T01:10:35.324Z,0
2018-06-25T01:11:44.182Z,0
2018-06-25T01:12:53.043Z,0
2018-06-25T01:14:02.178Z,0
2018-06-25T01:15:11.043Z,0
2018-06-25T01:16:20.051Z,0
2018-06-25T01:17:28.911Z,0
2018-06-25T01:18:38.046Z,0
2018-06-25T01:19:47.181Z,0
2018-06-25T01:20:56.041Z,0
2018-06-25T01:22:04.948Z,0
2018-06-25T01:23:13.808Z,0
2018-06-25T01:24:22.668Z,0
2018-06-25T01:25:31.825Z,0
2018-06-25T01:26:40.684Z,0
2018-06-25T01:27:49.894Z,0
2018-06-25T01:28:59.031Z,0
2018-06-25T01:30:07.890Z,0
2018-06-25T01:31:17.023Z,0
2018-06-25T01:32:25.883Z,0
2018-06-25T01:33:34.844Z,0
2018-06-25T01:34:43.982Z,0
2018-06-25T01:35:52.843Z,0
2018-06-25T01:37:01.706Z,0
2018-06-25T01:38:10.851Z,0
2018-06-25T01:39:19.860Z,0
2018-06-25T01:40:28.996Z,0
2018-06-25T01:41:37.860Z,0
2018-06-25T01:42:47.272Z,0
2018-06-25T01:43:56.132Z,0
2018-06-25T01:45:05.095Z,0
2018-06-25T01:46:13.952Z,0
2018-06-25T01:47:22.813Z,0
2018-06-25T01:48:31.673Z,0
2018-06-25T01:49:40.535Z,0
2018-06-25T01:50:50.006Z,0
2018-06-25T01:51:59.142Z,0
2018-06-25T01:53:08.281Z,0
2018-06-25T01:54:17.140Z,0
2018-06-25T01:55:26.002Z,0
2018-06-25T01:56:35.307Z,0
2018-06-25T01:57:44.164Z,0
2018-06-25T01:58:53.026Z,0
2018-06-25T02:00:02.487Z,0
2018-06-25T02:01:11.347Z,0
2018-06-25T02:02:20.360Z,0
2018-06-25T02:03:29.221Z,0
2018-06-25T02:04:38.082Z,0
2018-06-25T02:05:46.942Z,0
2018-06-25T02:06:55.802Z,0
2018-06-25T02:08:05.037Z,0
2018-06-25T02:09:13.897Z,0
2018-06-25T02:10:23.033Z,0
2018-06-25T02:11:31.898Z,0
2018-06-25T02:12:40.754Z,0
2018-06-25T02:13:49.992Z,0
2018-06-25T02:14:59.188Z,0
2018-06-25T02:16:08.267Z,0
2018-06-25T02:17:17.127Z,0
2018-06-25T02:18:25.991Z,0
2018-06-25T02:19:34.904Z,4
2018-06-25T02:20:43.773Z,4
2018-06-25T02:21:52.624Z,0
2018-06-25T02:23:01.483Z,4
2018-06-25T02:24:10.345Z,4
2018-06-25T02:25:19.555Z,4
2018-06-25T02:26:28.417Z,4
2018-06-25T02:27:37.277Z,4
2018-06-25T02:28:46.141Z,4
2018-06-25T02:29:55.003Z,4
2018-06-25T02:31:03.963Z,4
2018-06-25T02:32:12.825Z,4
2018-06-25T02:33:21.966Z,4
2018-06-25T02:34:30.827Z,4
2018-06-25T02:35:39.686Z,8
2018-06-25T02:36:48.703Z,12
2018-06-25T02:37:57.838Z,8
2018-06-25T02:39:06.698Z,12
2018-06-25T02:40:16.155Z,12
2018-06-25T02:41:25.015Z,12
2018-06-25T02:42:34.209Z,16
2018-06-25T02:43:43.349Z,12
2018-06-25T02:44:52.495Z,20
2018-06-25T02:46:01.631Z,24
2018-06-25T02:47:10.493Z,28
2018-06-25T02:48:19.782Z,32
2018-06-25T02:49:28.639Z,32
2018-06-25T02:50:37.776Z,32
2018-06-25T02:51:46.916Z,40
2018-06-25T02:52:55.774Z,44
2018-06-25T02:54:05.416Z,48
2018-06-25T02:55:14.222Z,48
2018-06-25T02:56:23.094Z,44
2018-06-25T02:57:31.949Z,56
2018-06-25T02:58:40.812Z,52
2018-06-25T02:59:50.098Z,60
2018-06-25T03:01:00.078Z,68
2018-06-25T03:02:09.518Z,76
2018-06-25T03:03:18.370Z,88
2018-06-25T03:04:27.230Z,92
2018-06-25T03:05:36.189Z,108
2018-06-25T03:06:45.325Z,108
2018-06-25T03:07:54.463Z,108
2018-06-25T03:09:03.321Z,120
2018-06-25T03:10:12.188Z,124
2018-06-25T03:11:21.602Z,148
2018-06-25T03:12:30.462Z,152
2018-06-25T03:13:39.892Z,160
2018-06-25T03:14:48.753Z,168
2018-06-25T03:15:57.619Z,192
2018-06-25T03:17:07.012Z,220
2018-06-25T03:18:15.869Z,236
2018-06-25T03:19:25.010Z,220
2018-06-25T03:20:33.877Z,228
2018-06-25T03:21:43.015Z,256
2018-06-25T03:22:51.925Z,232
2018-06-25T03:24:01.065Z,256
2018-06-25T03:25:09.924Z,248
2018-06-25T03:26:19.060Z,264
2018-06-25T03:27:27.919Z,240
2018-06-25T03:28:36.881Z,252
2018-06-25T03:29:45.747Z,312
2018-06-25T03:30:54.608Z,300
2018-06-25T03:32:03.746Z,344
2018-06-25T03:33:12.890Z,336
2018-06-25T03:34:21.901Z,348
2018-06-25T03:35:30.762Z,344
2018-06-25T03:36:39.905Z,336
2018-06-25T03:37:48.761Z,352
2018-06-25T03:38:57.897Z,368
2018-06-25T03:40:07.107Z,300
2018-06-25T03:41:15.969Z,296
2018-06-25T03:42:24.828Z,368
2018-06-25T03:43:33.689Z,328
2018-06-25T03:44:42.549Z,316
2018-06-25T03:45:51.792Z,296
2018-06-25T03:47:00.650Z,280
2018-06-25T03:48:09.511Z,312
2018-06-25T03:49:18.927Z,380
2018-06-25T03:50:27.787Z,324
2018-06-25T03:51:36.800Z,296
2018-06-25T03:52:45.663Z,300
2018-06-25T03:53:54.524Z,468
2018-06-25T03:55:03.668Z,392
2018-06-25T03:56:12.800Z,380
2018-06-25T03:57:21.911Z,388
2018-06-25T03:58:30.776Z,416
2018-06-25T03:59:39.967Z,492
2018-06-25T04:00:48.827Z,468
2018-06-25T04:01:57.963Z,412
2018-06-25T04:03:06.872Z,384
2018-06-25T04:04:15.735Z,468
2018-06-25T04:05:24.598Z,472
2018-06-25T04:06:33.462Z,448
2018-06-25T04:07:42.323Z,452
2018-06-25T04:08:51.185Z,536
2018-06-25T04:10:00.046Z,512
2018-06-25T04:11:09.180Z,524
2018-06-25T04:12:18.422Z,560
2018-06-25T04:13:27.562Z,632
2018-06-25T04:14:36.773Z,628
2018-06-25T04:15:45.635Z,572
2018-06-25T04:16:54.499Z,632
2018-06-25T04:18:03.355Z,668
2018-06-25T04:19:12.775Z,620
2018-06-25T04:20:21.686Z,712
2018-06-25T04:21:30.550Z,696
2018-06-25T04:22:39.685Z,736
2018-06-25T04:23:48.570Z,660
2018-06-25T04:24:57.411Z,788
2018-06-25T04:26:06.696Z,712
2018-06-25T04:27:15.556Z,736
2018-06-25T04:28:24.417Z,680
2018-06-25T04:29:33.276Z,688
2018-06-25T04:30:42.206Z,656
2018-06-25T04:31:51.349Z,652
2018-06-25T04:33:00.221Z,672
2018-06-25T04:34:09.357Z,716
2018-06-25T04:35:18.493Z,796
2018-06-25T04:36:27.630Z,760
2018-06-25T04:37:36.874Z,1008
2018-06-25T04:38:45.732Z,876
2018-06-25T04:39:54.593Z,884
2018-06-25T04:41:03.453Z,984
2018-06-25T04:42:12.313Z,1120
2018-06-25T04:43:21.324Z,1200
2018-06-25T04:44:30.214Z,1120
2018-06-25T04:45:39.047Z,1176
2018-06-25T04:46:48.185Z,1568
2018-06-25T04:47:57.327Z,1472
2018-06-25T04:49:06.567Z,1412
2018-06-25T04:50:15.429Z,1384
2018-06-25T04:51:24.291Z,1212
2018-06-25T04:52:33.426Z,1148
2018-06-25T04:53:42.291Z,1732
2018-06-25T04:54:51.149Z,1848
2018-06-25T04:56:00.283Z,1840
2018-06-25T04:57:09.425Z,1940
2018-06-25T04:58:18.287Z,2176
2018-06-25T04:59:27.151Z,2592
2018-06-25T05:00:36.010Z,2360
2018-06-25T05:01:44.870Z,2276
2018-06-25T05:02:53.743Z,2372
2018-06-25T05:04:02.613Z,2232
2018-06-25T05:05:11.473Z,2008
2018-06-25T05:06:20.392Z,2356
2018-06-25T05:07:29.531Z,2340
2018-06-25T05:08:38.668Z,2400
2018-06-25T05:09:47.806Z,2476
2018-06-25T05:10:56.665Z,2288
2018-06-25T05:12:05.881Z,2104
2018-06-25T05:13:14.747Z,2456
2018-06-25T05:14:23.606Z,2280
2018-06-25T05:15:32.468Z,2124
2018-06-25T05:16:41.333Z,2816
2018-06-25T05:17:50.199Z,2904
2018-06-25T05:18:59.062Z,2216
2018-06-25T05:20:07.922Z,2508
2018-06-25T05:21:16.786Z,2296
2018-06-25T05:22:25.646Z,2672
2018-06-25T05:23:34.885Z,2592
2018-06-25T05:24:43.967Z,2404
2018-06-25T05:25:52.830Z,2496
2018-06-25T05:27:01.974Z,2800
2018-06-25T05:28:10.839Z,3108
2018-06-25T05:29:20.110Z,3568
2018-06-25T05:30:29.251Z,3352
2018-06-25T05:31:38.388Z,3224
2018-06-25T05:32:47.251Z,3252
2018-06-25T05:33:56.113Z,3384
2018-06-25T05:35:05.078Z,3184
2018-06-25T05:36:13.940Z,3376
2018-06-25T05:37:23.076Z,3700
2018-06-25T05:38:31.938Z,3044
2018-06-25T05:39:41.169Z,3712
2018-06-25T05:40:50.079Z,3064
2018-06-25T05:41:59.211Z,3644
2018-06-25T05:43:08.377Z,3420
2018-06-25T05:44:17.327Z,3352
2018-06-25T05:45:26.235Z,3692
2018-06-25T05:46:35.101Z,3464
2018-06-25T05:47:43.969Z,3248
2018-06-25T05:48:52.889Z,3472
2018-06-25T05:50:02.050Z,3668
2018-06-25T05:51:10.914Z,3068
2018-06-25T05:52:20.201Z,2920
2018-06-25T05:53:29.072Z,2512
2018-06-25T05:54:37.936Z,1900
2018-06-25T05:55:46.801Z,1804
2018-06-25T05:56:55.962Z,1760
2018-06-25T05:58:05.026Z,2436
2018-06-25T05:59:14.171Z,2392
2018-06-25T06:00:23.024Z,2640
2018-06-25T06:01:31.886Z,2144
2018-06-25T06:02:40.748Z,2836
2018-06-25T06:03:49.709Z,2472
2018-06-25T06:04:58.570Z,1616
2018-06-25T06:06:07.432Z,2836
2018-06-25T06:07:16.296Z,2880
2018-06-25T06:08:25.160Z,2576
2018-06-25T06:09:34.069Z,2492
2018-06-25T06:10:42.932Z,2828
2018-06-25T06:11:52.071Z,3024
2018-06-25T06:13:00.931Z,2916
2018-06-25T06:14:10.071Z,3016
2018-06-25T06:15:19.183Z,3396
2018-06-25T06:16:28.049Z,3620
2018-06-25T06:17:36.910Z,3276
2018-06-25T06:18:45.769Z,3124
2018-06-25T06:19:54.628Z,3228
2018-06-25T06:21:03.946Z,2768
2018-06-25T06:22:12.802Z,2212
2018-06-25T06:23:21.663Z,2036
2018-06-25T06:24:30.959Z,1956
2018-06-25T06:25:40.380Z,2400
2018-06-25T06:26:49.573Z,3368
2018-06-25T06:27:58.434Z,3272
2018-06-25T06:29:07.294Z,2608
2018-06-25T06:30:16.159Z,2544
2018-06-25T06:31:25.020Z,2868
2018-06-25T06:32:33.931Z,3360
2018-06-25T06:33:42.794Z,3484
2018-06-25T06:34:51.932Z,3852
2018-06-25T06:36:00.792Z,3756
2018-06-25T06:37:09.654Z,3660
2018-06-25T06:38:18.665Z,2968
2018-06-25T06:39:27.527Z,2484
2018-06-25T06:40:36.390Z,3008
2018-06-25T06:41:45.246Z,3968
2018-06-25T06:42:54.383Z,3612
2018-06-25T06:44:03.695Z,4056
2018-06-25T06:45:12.557Z,4128
2018-06-25T06:46:21.427Z,4280
2018-06-25T06:47:30.279Z,4096
2018-06-25T06:48:39.142Z,3944
2018-06-25T06:49:48.154Z,3676
2018-06-25T06:50:57.015Z,3256
2018-06-25T06:52:05.876Z,3956
2018-06-25T06:53:14.739Z,3720
2018-06-25T06:54:23.601Z,3584
2018-06-25T06:55:32.464Z,3936
2018-06-25T06:56:41.602Z,4824
2018-06-25T06:57:50.537Z,4220
2018-06-25T06:58:59.755Z,4264
2018-06-25T07:00:08.618Z,4308
2018-06-25T07:01:17.632Z,3504
2018-06-25T07:02:26.494Z,3184
2018-06-25T07:03:35.688Z,3892
2018-06-25T07:04:44.554Z,4912
2018-06-25T07:05:53.414Z,4924
2018-06-25T07:07:02.373Z,4700
2018-06-25T07:08:11.240Z,4484
2018-06-25T07:09:20.103Z,4264
2018-06-25T07:10:28.966Z,4376
2018-06-25T07:11:37.829Z,2892
2018-06-25T07:12:46.737Z,1956
2018-06-25T07:13:55.600Z,1808
2018-06-25T07:15:04.743Z,1956
2018-06-25T07:16:13.604Z,2996
2018-06-25T07:17:22.465Z,3476
2018-06-25T07:18:31.432Z,3472
2018-06-25T07:19:40.297Z,2964
2018-06-25T07:20:49.264Z,3024
2018-06-25T07:21:58.021Z,3056
2018-06-25T07:23:06.883Z,2752
2018-06-25T07:24:16.745Z,2884
2018-06-25T07:25:25.607Z,2792
2018-06-25T07:26:34.471Z,2732
2018-06-25T07:27:43.610Z,2756
2018-06-25T07:28:52.502Z,2960
2018-06-25T07:30:01.793Z,3016
2018-06-25T07:31:10.654Z,3488
2018-06-25T07:32:20.095Z,4000
2018-06-25T07:33:28.956Z,3132
2018-06-25T07:34:38.099Z,3024
2018-06-25T07:35:47.062Z,3108
2018-06-25T07:36:55.927Z,3364
2018-06-25T07:38:04.788Z,3648
2018-06-25T07:39:13.927Z,4612
2018-06-25T07:40:22.791Z,4876
2018-06-25T07:41:31.708Z,3388
2018-06-25T07:42:40.863Z,3068
2018-06-25T07:43:50.000Z,3228
2018-06-25T07:44:59.139Z,3208
2018-06-25T07:46:08.559Z,2988
2018-06-25T07:47:17.606Z,2980
2018-06-25T07:48:26.879Z,3040
2018-06-25T07:49:35.736Z,3304
2018-06-25T07:50:44.597Z,3904
2018-06-25T07:51:53.470Z,4876
2018-06-25T07:53:03.218Z,5308
2018-06-25T07:54:12.080Z,4888
2018-06-25T07:55:21.217Z,4592
2018-06-25T07:56:30.353Z,5388
2018-06-25T07:57:39.216Z,5756
2018-06-25T07:58:48.404Z,4972
2018-06-25T07:59:57.264Z,4268
2018-06-25T08:01:06.126Z,4092
2018-06-25T08:02:14.987Z,4188
2018-06-25T08:03:23.850Z,3740
2018-06-25T08:04:33.140Z,3388
2018-06-25T08:05:42.277Z,3408
2018-06-25T08:06:51.142Z,3268
2018-06-25T08:08:00.011Z,2912
2018-06-25T08:09:09.149Z,2520
2018-06-25T08:10:18.508Z,2464
2018-06-25T08:11:27.611Z,2404
2018-06-25T08:12:36.472Z,2380
2018-06-25T08:13:45.333Z,2196
2018-06-25T08:14:54.193Z,2132
2018-06-25T08:16:03.106Z,2344
2018-06-25T08:17:11.968Z,2828
2018-06-25T08:18:20.829Z,3932
2018-06-25T08:19:29.688Z,3760
2018-06-25T08:20:38.828Z,3740
2018-06-25T08:21:47.787Z,4292
2018-06-25T08:22:56.926Z,4604
2018-06-25T08:24:05.788Z,4436
2018-06-25T08:25:14.928Z,4040
2018-06-25T08:26:24.068Z,3332
2018-06-25T08:27:33.035Z,2932
2018-06-25T08:28:41.898Z,2980
2018-06-25T08:29:50.797Z,3020
2018-06-25T08:30:59.621Z,3396
2018-06-25T08:32:08.481Z,3620
2018-06-25T08:33:17.619Z,3376
2018-06-25T08:34:27.196Z,3372
2018-06-25T08:35:35.875Z,3212
2018-06-25T08:36:44.741Z,3328
2018-06-25T08:37:53.604Z,3576
2018-06-25T08:39:02.841Z,3572
2018-06-25T08:40:11.993Z,3564
2018-06-25T08:41:21.786Z,3692
2018-06-25T08:42:30.646Z,3924
2018-06-25T08:43:39.789Z,3572
2018-06-25T08:44:48.700Z,3688
2018-06-25T08:45:58.097Z,3704
2018-06-25T08:47:07.127Z,4020
2018-06-25T08:48:15.991Z,4256
2018-06-25T08:49:25.127Z,4376
2018-06-25T08:50:34.599Z,4460
2018-06-25T08:51:43.831Z,4332
2018-06-25T08:52:52.910Z,4976
2018-06-25T08:54:01.768Z,5116
2018-06-25T08:55:10.630Z,5380
2018-06-25T08:56:19.546Z,6048
2018-06-25T08:57:28.683Z,7032
2018-06-25T08:58:37.545Z,8972
2018-06-25T08:59:46.702Z,10876
2018-06-25T09:00:55.563Z,12244
2018-06-25T09:02:04.576Z,12984
2018-06-25T09:03:13.883Z,12920
2018-06-25T09:04:23.732Z,12188
2018-06-25T09:05:32.932Z,10380
2018-06-25T09:06:41.793Z,9292
2018-06-25T09:07:50.757Z,9012
2018-06-25T09:08:59.622Z,7940
2018-06-25T09:10:08.760Z,7928
2018-06-25T09:11:17.635Z,7552
2018-06-25T09:12:26.780Z,7860
2018-06-25T09:13:35.794Z,7316
2018-06-25T09:14:44.656Z,6696
2018-06-25T09:15:53.799Z,6160
2018-06-25T09:17:03.213Z,5816
2018-06-25T09:18:12.361Z,5556
2018-06-25T09:19:21.324Z,6060
2018-06-25T09:20:30.184Z,6716
2018-06-25T09:21:39.046Z,6416
2018-06-25T09:22:48.187Z,6472
2018-06-25T09:23:57.324Z,7772
2018-06-25T09:25:06.234Z,9264
2018-06-25T09:26:15.097Z,10012
2018-06-25T09:27:23.959Z,11812
2018-06-25T09:28:32.821Z,13824
2018-06-25T09:29:41.683Z,13548
2018-06-25T09:30:50.594Z,11972
2018-06-25T09:31:59.459Z,9916
2018-06-25T09:33:08.322Z,8424
2018-06-25T09:34:17.185Z,7552
2018-06-25T09:35:26.053Z,6564
2018-06-25T09:36:34.965Z,6464
2018-06-25T09:37:44.103Z,6508
2018-06-25T09:38:52.966Z,6632
2018-06-25T09:40:02.116Z,6328
2018-06-25T09:41:11.069Z,6004
2018-06-25T09:42:19.893Z,5944
2018-06-25T09:43:29.039Z,5900
2018-06-25T09:44:37.969Z,5892
2018-06-25T09:45:46.754Z,6352
2018-06-25T09:46:56.296Z,7108
2018-06-25T09:48:05.264Z,7752
2018-06-25T09:49:14.137Z,8844
2018-06-25T09:50:22.990Z,8652
2018-06-25T09:51:31.851Z,7928
2018-06-25T09:52:40.715Z,7364
2018-06-25T09:53:49.886Z,7656
2018-06-25T09:54:59.342Z,6952
2018-06-25T09:56:08.188Z,6272
2018-06-25T09:57:17.341Z,6980
2018-06-25T09:58:26.205Z,5928
2018-06-25T09:59:35.164Z,5260
2018-06-25T10:00:44.030Z,4928
2018-06-25T10:01:52.894Z,5064
2018-06-25T10:03:01.760Z,5240
2018-06-25T10:04:10.905Z,5672
2018-06-25T10:05:19.871Z,6012
2018-06-25T10:06:28.731Z,6144
2018-06-25T10:07:37.872Z,6212
2018-06-25T10:08:46.746Z,6692
2018-06-25T10:09:55.602Z,7416
2018-06-25T10:11:04.620Z,6752
2018-06-25T10:12:14.309Z,6008
2018-06-25T10:13:23.171Z,5628
2018-06-25T10:14:32.034Z,5904
2018-06-25T10:15:41.176Z,6600
2018-06-25T10:16:50.362Z,7088
2018-06-25T10:17:59.504Z,7128
2018-06-25T10:19:08.367Z,9204
2018-06-25T10:20:17.227Z,12836
2018-06-25T10:21:26.240Z,14392
2018-06-25T10:22:35.488Z,17440
2018-06-25T10:23:44.354Z,17120
2018-06-25T10:24:53.494Z,18720
2018-06-25T10:26:02.916Z,19808
2018-06-25T10:27:12.056Z,19136
2018-06-25T10:28:21.322Z,13540
2018-06-25T10:29:31.018Z,10312
2018-06-25T10:30:40.215Z,8432
2018-06-25T10:31:49.078Z,7724
2018-06-25T10:32:57.947Z,6796
2018-06-25T10:34:07.087Z,6660
2018-06-25T10:35:15.950Z,6628
2018-06-25T10:36:24.886Z,6400
2018-06-25T10:37:33.755Z,6028
2018-06-25T10:38:42.619Z,7240
2018-06-25T10:39:51.485Z,8804
2018-06-25T10:41:00.348Z,10136
2018-06-25T10:42:09.333Z,11184
2018-06-25T10:43:18.190Z,11748
2018-06-25T10:44:27.128Z,11868
2018-06-25T10:45:36.112Z,11412
2018-06-25T10:46:45.002Z,10780
2018-06-25T10:47:53.898Z,10116
2018-06-25T10:49:03.095Z,8504
2018-06-25T10:50:12.013Z,8568
2018-06-25T10:51:21.237Z,8336
2018-06-25T10:52:30.432Z,6812
2018-06-25T10:53:40.257Z,6528
2018-06-25T10:54:50.103Z,6376
2018-06-25T10:55:59.020Z,5928
2018-06-25T10:57:08.358Z,6436
2018-06-25T10:58:17.316Z,9112
2018-06-25T10:59:26.478Z,10484
2018-06-25T11:00:35.905Z,10544
2018-06-25T11:01:44.834Z,10904
2018-06-25T11:02:53.805Z,12052
2018-06-25T11:04:02.982Z,11832
2018-06-25T11:05:11.877Z,10340
2018-06-25T11:06:21.097Z,9384
2018-06-25T11:07:30.372Z,10420
2018-06-25T11:08:39.190Z,11924
2018-06-25T11:09:48.153Z,12456
2018-06-25T11:10:57.165Z,12588
2018-06-25T11:12:06.178Z,11360
2018-06-25T11:13:15.127Z,10232
2018-06-25T11:14:24.026Z,8656
2018-06-25T11:15:33.557Z,9408
2018-06-25T11:16:42.635Z,10720
2018-06-25T11:17:51.571Z,8432
2018-06-25T11:19:00.751Z,10056
2018-06-25T11:20:09.629Z,9036
2018-06-25T11:21:18.769Z,9700
2018-06-25T11:22:27.908Z,11228
2018-06-25T11:23:36.848Z,10348
2018-06-25T11:24:45.741Z,10748
2018-06-25T11:25:54.638Z,12948
2018-06-25T11:27:04.451Z,12740
2018-06-25T11:28:13.674Z,14132
2018-06-25T11:29:22.566Z,14240
2018-06-25T11:30:31.714Z,14792
2018-06-25T11:31:40.577Z,16928
2018-06-25T11:32:49.441Z,17408
2018-06-25T11:33:58.682Z,18336
2018-06-25T11:35:07.546Z,18464
2018-06-25T11:36:16.698Z,18464
2018-06-25T11:37:25.554Z,17728
2018-06-25T11:38:34.418Z,15584
2018-06-25T11:39:43.335Z,14948
2018-06-25T11:40:52.198Z,19008
2018-06-25T11:42:01.064Z,20160
2018-06-25T11:43:09.930Z,20896
2018-06-25T11:44:18.864Z,19264
2018-06-25T11:45:28.136Z,17280
2018-06-25T11:46:37.130Z,18176
2018-06-25T11:47:46.029Z,19392
2018-06-25T11:48:54.987Z,17152
2018-06-25T11:50:03.876Z,17248
2018-06-25T11:51:13.015Z,15524
2018-06-25T11:52:21.897Z,13700
2018-06-25T11:53:31.350Z,14396
2018-06-25T11:54:40.224Z,17600
2018-06-25T11:55:49.134Z,21248
2018-06-25T11:56:58.190Z,22688
2018-06-25T11:58:07.124Z,22176
2018-06-25T11:59:16.010Z,21664
2018-06-25T12:00:24.921Z,21568
2018-06-25T12:01:33.805Z,21184
2018-06-25T12:02:43.733Z,20800
2018-06-25T12:03:52.398Z,20384
2018-06-25T12:05:01.570Z,20448
2018-06-25T12:06:10.458Z,20352
2018-06-25T12:07:19.932Z,20192
2018-06-25T12:08:29.047Z,18400
2018-06-25T12:09:37.953Z,16992
2018-06-25T12:10:47.288Z,15424
2018-06-25T12:11:56.176Z,15528
2018-06-25T12:13:05.062Z,15312
2018-06-25T12:14:14.877Z,15568
2018-06-25T12:15:23.657Z,16544
2018-06-25T12:16:32.566Z,16704
2018-06-25T12:17:41.444Z,15856
2018-06-25T12:18:50.317Z,17632
2018-06-25T12:20:00.028Z,19968
2018-06-25T12:21:09.194Z,19872
2018-06-25T12:22:18.099Z,20832
2018-06-25T12:23:26.966Z,23360
2018-06-25T12:24:35.834Z,22400
2018-06-25T12:25:44.698Z,21408
2018-06-25T12:26:53.634Z,22240
2018-06-25T12:28:02.503Z,20832
2018-06-25T12:29:11.370Z,21216
2018-06-25T12:30:20.873Z,23616
2018-06-25T12:31:29.784Z,24960
2018-06-25T12:32:38.650Z,22496
2018-06-25T12:33:47.519Z,24864
2018-06-25T12:34:56.671Z,21312
2018-06-25T12:36:05.535Z,21504
2018-06-25T12:37:14.952Z,20320
2018-06-25T12:38:23.822Z,17152
2018-06-25T12:39:32.691Z,21088
2018-06-25T12:40:41.561Z,22720
2018-06-25T12:41:50.427Z,20192
2018-06-25T12:42:59.295Z,18624
2018-06-25T12:44:08.462Z,18560
2018-06-25T12:45:17.329Z,20960
2018-06-25T12:46:26.481Z,20864
2018-06-25T12:47:35.635Z,18912
2018-06-25T12:48:44.509Z,17984
2018-06-25T12:49:53.652Z,18048
2018-06-25T12:51:02.619Z,18176
2018-06-25T12:52:11.577Z,17472
2018-06-25T12:53:20.813Z,16512
2018-06-25T12:54:29.959Z,15580
2018-06-25T12:55:38.836Z,14744
2018-06-25T12:56:47.717Z,14252
2018-06-25T12:57:57.146Z,13956
2018-06-25T12:59:06.028Z,14188
2018-06-25T13:00:14.891Z,14960
2018-06-25T13:01:24.152Z,15808
2018-06-25T13:02:33.569Z,16032
2018-06-25T13:03:42.450Z,16608
2018-06-25T13:04:51.321Z,16672
2018-06-25T13:06:00.186Z,16672
2018-06-25T13:07:09.053Z,16896
2018-06-25T13:08:17.978Z,16896
2018-06-25T13:09:27.118Z,17568
2018-06-25T13:10:35.986Z,18176
2018-06-25T13:11:44.851Z,19136
2018-06-25T13:12:53.724Z,21888
2018-06-25T13:14:03.036Z,24512
2018-06-25T13:15:11.902Z,29824
2018-06-25T13:16:21.014Z,27808
2018-06-25T13:17:29.879Z,27456
2018-06-25T13:18:38.763Z,23136
2018-06-25T13:19:47.670Z,22496
2018-06-25T13:20:56.528Z,47232
2018-06-25T13:22:05.425Z,33120
2018-06-25T13:23:14.568Z,45568
2018-06-25T13:24:23.440Z,71680
2018-06-25T13:25:32.430Z,71104
2018-06-25T13:26:41.560Z,100416
2018-06-25T13:27:50.435Z,37088
2018-06-25T13:28:59.358Z,18656
2018-06-25T13:30:08.289Z,70880
2018-06-25T13:31:17.743Z,83392
2018-06-25T13:32:26.746Z,47872
2018-06-25T13:33:35.969Z,87232
2018-06-25T13:34:45.121Z,85568
2018-06-25T13:35:53.996Z,91488
2018-06-25T13:37:03.014Z,104608
2018-06-25T13:38:12.136Z,103872
2018-06-25T13:39:21.679Z,96800
2018-06-25T13:40:30.913Z,95744
2018-06-25T13:41:40.148Z,88096
2018-06-25T13:42:49.076Z,77600
2018-06-25T13:43:57.952Z,86240
2018-06-25T13:45:06.828Z,88512
2018-06-25T13:46:15.703Z,84000
2018-06-25T13:47:24.583Z,62944
2018-06-25T13:48:33.792Z,48800
2018-06-25T13:49:42.703Z,38144
2018-06-25T13:50:51.579Z,41024
2018-06-25T13:52:00.457Z,44576
2018-06-25T13:53:09.610Z,42688
2018-06-25T13:54:18.588Z,96480
2018-06-25T13:55:27.466Z,50176
2018-06-25T13:56:36.344Z,69984
2018-06-25T13:57:45.499Z,64640
2018-06-25T13:58:54.376Z,77056
2018-06-25T14:00:03.985Z,29216
2018-06-25T14:01:12.868Z,73408
2018-06-25T14:02:21.746Z,97120
2018-06-25T14:03:30.637Z,68160
2018-06-25T14:04:39.517Z,96032
2018-06-25T14:05:48.762Z,80896
2018-06-25T14:06:57.913Z,68416
2018-06-25T14:08:06.791Z,73760
2018-06-25T14:09:15.768Z,77408
2018-06-25T14:10:24.644Z,82080
2018-06-25T14:11:33.720Z,70848
2018-06-25T14:12:42.598Z,48896
2018-06-25T14:13:51.485Z,82272
2018-06-25T14:15:00.365Z,76032
2018-06-25T14:16:09.241Z,71200
2018-06-25T14:17:18.174Z,71328
2018-06-25T14:18:27.329Z,54848
2018-06-25T14:19:36.213Z,61760
2018-06-25T14:20:45.499Z,88384
2018-06-25T14:21:54.388Z,89952
2018-06-25T14:23:03.624Z,82208
2018-06-25T14:24:12.513Z,75072
2018-06-25T14:25:21.689Z,51200
2018-06-25T14:26:30.579Z,72576
2018-06-25T14:27:39.465Z,84832
2018-06-25T14:28:48.427Z,88608
2018-06-25T14:29:57.316Z,85984
2018-06-25T14:31:06.245Z,83168
2018-06-25T14:32:15.280Z,89440
2018-06-25T14:33:24.173Z,91136
2018-06-25T14:34:33.054Z,92928
2018-06-25T14:35:41.940Z,87040
2018-06-25T14:36:50.828Z,86048
2018-06-25T14:37:59.996Z,83456
2018-06-25T14:39:08.883Z,82560
2018-06-25T14:40:18.398Z,85632
2018-06-25T14:41:27.209Z,84448
2018-06-25T14:42:36.381Z,79584
2018-06-25T14:43:45.278Z,18400
2018-06-25T14:44:54.456Z,17408
2018-06-25T14:46:03.399Z,14184
2018-06-25T14:47:12.292Z,26976
2018-06-25T14:48:21.611Z,36704
2018-06-25T14:49:31.082Z,28544
2018-06-25T14:50:40.236Z,88064
2018-06-25T14:51:49.466Z,66528
2018-06-25T14:52:58.617Z,74848
2018-06-25T14:54:07.784Z,91616
2018-06-25T14:55:16.661Z,89312
2018-06-25T14:56:25.536Z,59232
2018-06-25T14:57:34.563Z,85952
2018-06-25T14:58:43.439Z,63584
2018-06-25T14:59:52.325Z,21120
2018-06-25T15:01:01.476Z,19040
2018-06-25T15:02:10.352Z,15544
2018-06-25T15:03:19.280Z,14128
2018-06-25T15:04:28.157Z,13256
2018-06-25T15:05:37.035Z,12172
2018-06-25T15:06:45.918Z,11612
2018-06-25T15:07:55.070Z,14236
2018-06-25T15:09:04.100Z,18784
2018-06-25T15:10:12.974Z,19328
2018-06-25T15:11:21.853Z,18464
2018-06-25T15:12:30.732Z,14828
2018-06-25T15:13:39.879Z,13100
2018-06-25T15:14:49.081Z,11496
2018-06-25T15:15:57.960Z,11036
2018-06-25T15:17:06.831Z,11872
2018-06-25T15:18:15.977Z,13484
2018-06-25T15:19:24.848Z,14144
2018-06-25T15:20:33.868Z,12640
2018-06-25T15:21:42.738Z,21376
2018-06-25T15:22:51.609Z,23424
2018-06-25T15:24:00.481Z,15688
2018-06-25T15:25:09.353Z,17536
2018-06-25T15:26:18.508Z,17664
2018-06-25T15:27:27.380Z,15280
2018-06-25T15:28:36.248Z,14664